sensor_id;sensor_type;location;lat;lon;timestamp;P1;durP1;ratioP1;P2;durP2;ratioP2
70733;SDS011;58320;48.804;9.252;2022-08-19T00:00:33;16.38;;;11.07;;
70733;SDS011;58320;48.804;9.252;2022-08-19T00:03:03;14.75;;;10.23;;
70733;SDS011;58320;48.804;9.252;2022-08-19T00:05:30;14.07;;;10.57;;
70733;SDS011;58320;48.804;9.252;2022-08-19T00:07:56;15.60;;;11.00;;
70733;SDS011;58320;48.804;9.252;2022-08-19T00:10:23;13.75;;;10.32;;
70733;SDS011;58320;48.804;9.252;2022-08-19T00:12:49;16.33;;;10.35;;
70733;SDS011;58320;48.804;9.252;2022-08-19T00:15:18;16.83;;;11.18;;
70733;SDS011;58320;48.804;9.252;2022-08-19T00:17:46;17.65;;;10.45;;
70733;SDS011;58320;48.804;9.252;2022-08-19T00:20:13;15.00;;;10.80;;
70733;SDS011;58320;48.804;9.252;2022-08-19T00:22:43;15.53;;;11.27;;
70733;SDS011;58320;48.804;9.252;2022-08-19T00:25:11;14.82;;;11.02;;
70733;SDS011;58320;48.804;9.252;2022-08-19T00:27:37;15.32;;;10.75;;
70733;SDS011;58320;48.804;9.252;2022-08-19T00:30:03;18.52;;;11.40;;
70733;SDS011;58320;48.804;9.252;2022-08-19T00:32:32;15.27;;;10.75;;
70733;SDS011;58320;48.804;9.252;2022-08-19T00:34:59;15.85;;;10.65;;
70733;SDS011;58320;48.804;9.252;2022-08-19T00:37:26;15.77;;;10.30;;
70733;SDS011;58320;48.804;9.252;2022-08-19T00:39:52;14.83;;;10.23;;
70733;SDS011;58320;48.804;9.252;2022-08-19T00:42:20;16.80;;;10.87;;
70733;SDS011;58320;48.804;9.252;2022-08-19T00:44:47;15.02;;;10.55;;
70733;SDS011;58320;48.804;9.252;2022-08-19T00:47:14;14.73;;;10.05;;
70733;SDS011;58320;48.804;9.252;2022-08-19T00:49:41;14.98;;;10.50;;
70733;SDS011;58320;48.804;9.252;2022-08-19T00:52:34;15.20;;;10.57;;
70733;SDS011;58320;48.804;9.252;2022-08-19T00:55:05;12.37;;;8.97;;
70733;SDS011;58320;48.804;9.252;2022-08-19T00:57:37;16.30;;;10.63;;
70733;SDS011;58320;48.804;9.252;2022-08-19T01:00:08;14.75;;;10.07;;
70733;SDS011;58320;48.804;9.252;2022-08-19T01:02:39;13.80;;;10.63;;
70733;SDS011;58320;48.804;9.252;2022-08-19T01:05:08;16.27;;;10.63;;
70733;SDS011;58320;48.804;9.252;2022-08-19T01:07:40;15.35;;;10.48;;
70733;SDS011;58320;48.804;9.252;2022-08-19T01:10:08;14.40;;;10.27;;
70733;SDS011;58320;48.804;9.252;2022-08-19T01:12:38;15.70;;;10.53;;
70733;SDS011;58320;48.804;9.252;2022-08-19T01:15:09;16.65;;;10.88;;
70733;SDS011;58320;48.804;9.252;2022-08-19T01:17:38;16.08;;;10.80;;
70733;SDS011;58320;48.804;9.252;2022-08-19T01:20:07;14.90;;;10.30;;
70733;SDS011;58320;48.804;9.252;2022-08-19T01:22:57;21.23;;;10.55;;
70733;SDS011;58320;48.804;9.252;2022-08-19T01:25:25;15.13;;;9.77;;
70733;SDS011;58320;48.804;9.252;2022-08-19T01:27:56;14.87;;;10.17;;
70733;SDS011;58320;48.804;9.252;2022-08-19T01:30:27;16.02;;;10.43;;
70733;SDS011;58320;48.804;9.252;2022-08-19T01:32:58;16.13;;;10.98;;
70733;SDS011;58320;48.804;9.252;2022-08-19T01:35:30;16.60;;;11.05;;
70733;SDS011;58320;48.804;9.252;2022-08-19T01:37:58;16.60;;;11.30;;
70733;SDS011;58320;48.804;9.252;2022-08-19T01:40:29;18.00;;;11.53;;
70733;SDS011;58320;48.804;9.252;2022-08-19T01:42:58;15.50;;;10.63;;
70733;SDS011;58320;48.804;9.252;2022-08-19T01:45:25;18.00;;;11.15;;
70733;SDS011;58320;48.804;9.252;2022-08-19T01:47:54;17.30;;;11.23;;
70733;SDS011;58320;48.804;9.252;2022-08-19T01:50:21;14.98;;;10.43;;
70733;SDS011;58320;48.804;9.252;2022-08-19T01:52:47;17.42;;;10.77;;
70733;SDS011;58320;48.804;9.252;2022-08-19T01:55:16;17.37;;;11.13;;
70733;SDS011;58320;48.804;9.252;2022-08-19T01:57:50;16.47;;;10.73;;
70733;SDS011;58320;48.804;9.252;2022-08-19T02:00:22;18.70;;;11.45;;
70733;SDS011;58320;48.804;9.252;2022-08-19T02:02:51;17.25;;;11.30;;
70733;SDS011;58320;48.804;9.252;2022-08-19T02:05:17;17.27;;;10.90;;
70733;SDS011;58320;48.804;9.252;2022-08-19T02:07:45;17.30;;;11.20;;
70733;SDS011;58320;48.804;9.252;2022-08-19T02:10:14;19.70;;;11.73;;
70733;SDS011;58320;48.804;9.252;2022-08-19T02:12:46;16.90;;;10.63;;
70733;SDS011;58320;48.804;9.252;2022-08-19T02:15:12;17.30;;;11.35;;
70733;SDS011;58320;48.804;9.252;2022-08-19T02:17:38;17.73;;;11.65;;
70733;SDS011;58320;48.804;9.252;2022-08-19T02:20:05;17.90;;;11.65;;
70733;SDS011;58320;48.804;9.252;2022-08-19T02:22:32;18.10;;;10.20;;
70733;SDS011;58320;48.804;9.252;2022-08-19T02:24:58;19.45;;;12.93;;
70733;SDS011;58320;48.804;9.252;2022-08-19T02:27:24;21.07;;;12.57;;
70733;SDS011;58320;48.804;9.252;2022-08-19T02:29:51;19.40;;;12.38;;
70733;SDS011;58320;48.804;9.252;2022-08-19T02:32:18;18.08;;;12.25;;
70733;SDS011;58320;48.804;9.252;2022-08-19T02:34:45;20.45;;;13.23;;
70733;SDS011;58320;48.804;9.252;2022-08-19T02:37:12;20.83;;;12.57;;
70733;SDS011;58320;48.804;9.252;2022-08-19T02:39:57;19.02;;;12.88;;
70733;SDS011;58320;48.804;9.252;2022-08-19T02:42:24;22.53;;;13.47;;
70733;SDS011;58320;48.804;9.252;2022-08-19T02:44:50;19.27;;;12.95;;
70733;SDS011;58320;48.804;9.252;2022-08-19T02:47:17;20.13;;;12.63;;
70733;SDS011;58320;48.804;9.252;2022-08-19T02:49:44;21.80;;;13.50;;
70733;SDS011;58320;48.804;9.252;2022-08-19T02:52:10;21.70;;;14.02;;
70733;SDS011;58320;48.804;9.252;2022-08-19T02:54:37;21.03;;;13.77;;
70733;SDS011;58320;48.804;9.252;2022-08-19T02:57:04;24.37;;;13.37;;
70733;SDS011;58320;48.804;9.252;2022-08-19T02:59:31;23.35;;;13.98;;
70733;SDS011;58320;48.804;9.252;2022-08-19T03:01:57;23.58;;;14.20;;
70733;SDS011;58320;48.804;9.252;2022-08-19T03:04:23;21.83;;;14.20;;
70733;SDS011;58320;48.804;9.252;2022-08-19T03:06:49;22.30;;;13.70;;
70733;SDS011;58320;48.804;9.252;2022-08-19T03:09:16;23.50;;;15.33;;
70733;SDS011;58320;48.804;9.252;2022-08-19T03:11:43;22.13;;;14.07;;
70733;SDS011;58320;48.804;9.252;2022-08-19T03:14:10;21.20;;;13.15;;
70733;SDS011;58320;48.804;9.252;2022-08-19T03:16:45;22.02;;;13.75;;
70733;SDS011;58320;48.804;9.252;2022-08-19T03:19:17;24.38;;;14.70;;
70733;SDS011;58320;48.804;9.252;2022-08-19T03:21:46;25.58;;;15.30;;
70733;SDS011;58320;48.804;9.252;2022-08-19T03:24:13;23.70;;;15.10;;
70733;SDS011;58320;48.804;9.252;2022-08-19T03:26:44;23.73;;;14.65;;
70733;SDS011;58320;48.804;9.252;2022-08-19T03:29:13;22.13;;;14.65;;
70733;SDS011;58320;48.804;9.252;2022-08-19T03:31:41;23.83;;;15.05;;
70733;SDS011;58320;48.804;9.252;2022-08-19T03:34:12;24.25;;;15.95;;
70733;SDS011;58320;48.804;9.252;2022-08-19T03:36:42;23.67;;;15.03;;
70733;SDS011;58320;48.804;9.252;2022-08-19T03:39:09;24.33;;;16.27;;
70733;SDS011;58320;48.804;9.252;2022-08-19T03:41:37;23.60;;;14.43;;
70733;SDS011;58320;48.804;9.252;2022-08-19T03:44:06;25.60;;;16.13;;
70733;SDS011;58320;48.804;9.252;2022-08-19T03:46:33;24.00;;;15.30;;
70733;SDS011;58320;48.804;9.252;2022-08-19T03:49:00;24.65;;;15.20;;
70733;SDS011;58320;48.804;9.252;2022-08-19T03:51:33;24.20;;;15.40;;
70733;SDS011;58320;48.804;9.252;2022-08-19T03:54:03;23.87;;;14.93;;
70733;SDS011;58320;48.804;9.252;2022-08-19T03:56:33;26.10;;;16.92;;
70733;SDS011;58320;48.804;9.252;2022-08-19T03:59:00;24.33;;;16.02;;
70733;SDS011;58320;48.804;9.252;2022-08-19T04:01:27;24.95;;;16.20;;
70733;SDS011;58320;48.804;9.252;2022-08-19T04:03:55;27.83;;;16.38;;
70733;SDS011;58320;48.804;9.252;2022-08-19T04:06:23;28.88;;;16.83;;
70733;SDS011;58320;48.804;9.252;2022-08-19T04:09:09;22.30;;;15.17;;
70733;SDS011;58320;48.804;9.252;2022-08-19T04:11:37;21.15;;;14.30;;
70733;SDS011;58320;48.804;9.252;2022-08-19T04:14:07;24.85;;;14.93;;
70733;SDS011;58320;48.804;9.252;2022-08-19T04:16:35;24.70;;;15.73;;
70733;SDS011;58320;48.804;9.252;2022-08-19T04:19:02;25.90;;;15.80;;
70733;SDS011;58320;48.804;9.252;2022-08-19T04:21:29;23.37;;;15.30;;
70733;SDS011;58320;48.804;9.252;2022-08-19T04:23:56;26.33;;;17.30;;
70733;SDS011;58320;48.804;9.252;2022-08-19T04:26:23;26.20;;;16.58;;
70733;SDS011;58320;48.804;9.252;2022-08-19T04:28:53;23.25;;;15.55;;
70733;SDS011;58320;48.804;9.252;2022-08-19T04:31:24;24.17;;;15.77;;
70733;SDS011;58320;48.804;9.252;2022-08-19T04:33:53;24.05;;;15.98;;
70733;SDS011;58320;48.804;9.252;2022-08-19T04:36:22;24.55;;;15.00;;
70733;SDS011;58320;48.804;9.252;2022-08-19T04:38:55;28.77;;;17.30;;
70733;SDS011;58320;48.804;9.252;2022-08-19T04:41:24;23.63;;;15.73;;
70733;SDS011;58320;48.804;9.252;2022-08-19T04:44:10;24.80;;;15.52;;
70733;SDS011;58320;48.804;9.252;2022-08-19T04:46:37;28.05;;;17.85;;
70733;SDS011;58320;48.804;9.252;2022-08-19T04:49:04;26.50;;;17.20;;
70733;SDS011;58320;48.804;9.252;2022-08-19T04:51:32;23.75;;;15.85;;
70733;SDS011;58320;48.804;9.252;2022-08-19T04:54:00;26.00;;;17.03;;
70733;SDS011;58320;48.804;9.252;2022-08-19T04:56:28;25.33;;;16.50;;
70733;SDS011;58320;48.804;9.252;2022-08-19T04:58:54;25.80;;;16.73;;
70733;SDS011;58320;48.804;9.252;2022-08-19T05:01:23;28.00;;;17.73;;
70733;SDS011;58320;48.804;9.252;2022-08-19T05:03:53;26.20;;;16.70;;
70733;SDS011;58320;48.804;9.252;2022-08-19T05:06:20;25.92;;;17.98;;
70733;SDS011;58320;48.804;9.252;2022-08-19T05:08:48;26.97;;;17.83;;
70733;SDS011;58320;48.804;9.252;2022-08-19T05:11:15;24.90;;;16.85;;
70733;SDS011;58320;48.804;9.252;2022-08-19T05:13:45;26.13;;;16.15;;
70733;SDS011;58320;48.804;9.252;2022-08-19T05:16:13;23.83;;;16.35;;
70733;SDS011;58320;48.804;9.252;2022-08-19T05:18:42;25.65;;;16.00;;
70733;SDS011;58320;48.804;9.252;2022-08-19T05:21:26;24.93;;;16.30;;
70733;SDS011;58320;48.804;9.252;2022-08-19T05:24:12;27.43;;;16.60;;
70733;SDS011;58320;48.804;9.252;2022-08-19T05:26:40;28.23;;;17.17;;
70733;SDS011;58320;48.804;9.252;2022-08-19T05:29:17;23.30;;;15.98;;
70733;SDS011;58320;48.804;9.252;2022-08-19T05:31:45;25.35;;;16.42;;
70733;SDS011;58320;48.804;9.252;2022-08-19T05:34:14;25.27;;;15.52;;
70733;SDS011;58320;48.804;9.252;2022-08-19T05:36:42;26.00;;;15.27;;
70733;SDS011;58320;48.804;9.252;2022-08-19T05:39:11;31.37;;;17.57;;
70733;SDS011;58320;48.804;9.252;2022-08-19T05:41:44;26.70;;;16.98;;
70733;SDS011;58320;48.804;9.252;2022-08-19T05:44:17;26.10;;;17.13;;
70733;SDS011;58320;48.804;9.252;2022-08-19T05:46:45;28.23;;;17.05;;
70733;SDS011;58320;48.804;9.252;2022-08-19T05:49:12;26.92;;;17.65;;
70733;SDS011;58320;48.804;9.252;2022-08-19T05:51:40;23.97;;;14.63;;
70733;SDS011;58320;48.804;9.252;2022-08-19T05:54:07;29.17;;;17.87;;
70733;SDS011;58320;48.804;9.252;2022-08-19T05:56:36;28.35;;;18.45;;
70733;SDS011;58320;48.804;9.252;2022-08-19T05:59:03;26.98;;;17.77;;
70733;SDS011;58320;48.804;9.252;2022-08-19T06:01:33;24.83;;;15.88;;
70733;SDS011;58320;48.804;9.252;2022-08-19T06:04:00;27.52;;;18.33;;
70733;SDS011;58320;48.804;9.252;2022-08-19T06:06:27;24.67;;;17.02;;
70733;SDS011;58320;48.804;9.252;2022-08-19T06:08:53;28.33;;;17.73;;
70733;SDS011;58320;48.804;9.252;2022-08-19T06:13:49;28.90;;;18.83;;
70733;SDS011;58320;48.804;9.252;2022-08-19T06:16:19;29.55;;;18.92;;
70733;SDS011;58320;48.804;9.252;2022-08-19T06:18:54;32.58;;;20.65;;
70733;SDS011;58320;48.804;9.252;2022-08-19T06:21:22;26.67;;;17.37;;
70733;SDS011;58320;48.804;9.252;2022-08-19T06:23:52;32.30;;;20.57;;
70733;SDS011;58320;48.804;9.252;2022-08-19T06:26:19;27.83;;;18.73;;
70733;SDS011;58320;48.804;9.252;2022-08-19T06:28:46;29.50;;;19.27;;
70733;SDS011;58320;48.804;9.252;2022-08-19T06:31:14;28.35;;;18.38;;
70733;SDS011;58320;48.804;9.252;2022-08-19T06:33:43;33.05;;;18.35;;
70733;SDS011;58320;48.804;9.252;2022-08-19T06:39:15;29.60;;;19.03;;
70733;SDS011;58320;48.804;9.252;2022-08-19T06:41:50;30.70;;;17.55;;
70733;SDS011;58320;48.804;9.252;2022-08-19T06:44:19;27.50;;;17.83;;
70733;SDS011;58320;48.804;9.252;2022-08-19T06:46:48;28.15;;;18.13;;
70733;SDS011;58320;48.804;9.252;2022-08-19T06:49:14;28.83;;;18.70;;
70733;SDS011;58320;48.804;9.252;2022-08-19T06:51:43;25.70;;;17.00;;
70733;SDS011;58320;48.804;9.252;2022-08-19T06:54:13;27.60;;;18.23;;
70733;SDS011;58320;48.804;9.252;2022-08-19T06:56:39;27.08;;;17.55;;
70733;SDS011;58320;48.804;9.252;2022-08-19T06:59:16;31.05;;;18.52;;
70733;SDS011;58320;48.804;9.252;2022-08-19T07:01:48;28.70;;;17.55;;
70733;SDS011;58320;48.804;9.252;2022-08-19T07:04:21;27.20;;;17.70;;
70733;SDS011;58320;48.804;9.252;2022-08-19T07:07:06;25.85;;;17.00;;
70733;SDS011;58320;48.804;9.252;2022-08-19T07:09:38;31.48;;;19.10;;
70733;SDS011;58320;48.804;9.252;2022-08-19T07:12:07;32.42;;;18.70;;
70733;SDS011;58320;48.804;9.252;2022-08-19T07:14:38;25.90;;;16.90;;
70733;SDS011;58320;48.804;9.252;2022-08-19T07:17:05;27.67;;;17.73;;
70733;SDS011;58320;48.804;9.252;2022-08-19T07:19:34;27.17;;;17.27;;
70733;SDS011;58320;48.804;9.252;2022-08-19T07:22:02;27.05;;;18.70;;
70733;SDS011;58320;48.804;9.252;2022-08-19T07:24:30;27.50;;;17.20;;
70733;SDS011;58320;48.804;9.252;2022-08-19T07:26:59;26.45;;;17.00;;
70733;SDS011;58320;48.804;9.252;2022-08-19T07:29:28;26.42;;;17.83;;
70733;SDS011;58320;48.804;9.252;2022-08-19T07:31:57;29.50;;;17.97;;
70733;SDS011;58320;48.804;9.252;2022-08-19T07:34:25;27.13;;;17.17;;
70733;SDS011;58320;48.804;9.252;2022-08-19T07:36:54;28.02;;;16.60;;
70733;SDS011;58320;48.804;9.252;2022-08-19T07:39:25;25.48;;;16.95;;
70733;SDS011;58320;48.804;9.252;2022-08-19T07:41:54;26.65;;;16.42;;
70733;SDS011;58320;48.804;9.252;2022-08-19T07:44:22;26.67;;;18.00;;
70733;SDS011;58320;48.804;9.252;2022-08-19T07:46:50;24.40;;;15.50;;
70733;SDS011;58320;48.804;9.252;2022-08-19T07:49:20;28.50;;;17.20;;
70733;SDS011;58320;48.804;9.252;2022-08-19T07:51:49;28.08;;;17.15;;
70733;SDS011;58320;48.804;9.252;2022-08-19T07:54:23;30.35;;;18.92;;
70733;SDS011;58320;48.804;9.252;2022-08-19T07:56:52;26.35;;;16.60;;
70733;SDS011;58320;48.804;9.252;2022-08-19T07:59:18;26.42;;;17.23;;
70733;SDS011;58320;48.804;9.252;2022-08-19T08:01:47;26.57;;;16.67;;
70733;SDS011;58320;48.804;9.252;2022-08-19T08:04:15;27.90;;;16.63;;
70733;SDS011;58320;48.804;9.252;2022-08-19T08:07:01;26.10;;;18.27;;
70733;SDS011;58320;48.804;9.252;2022-08-19T08:09:46;27.35;;;17.77;;
70733;SDS011;58320;48.804;9.252;2022-08-19T08:12:17;21.15;;;14.13;;
70733;SDS011;58320;48.804;9.252;2022-08-19T08:14:54;25.83;;;15.77;;
70733;SDS011;58320;48.804;9.252;2022-08-19T08:17:25;26.93;;;16.53;;
70733;SDS011;58320;48.804;9.252;2022-08-19T08:19:53;23.77;;;16.67;;
70733;SDS011;58320;48.804;9.252;2022-08-19T08:22:20;23.55;;;15.23;;
70733;SDS011;58320;48.804;9.252;2022-08-19T08:25:10;25.00;;;16.33;;
70733;SDS011;58320;48.804;9.252;2022-08-19T08:27:43;25.45;;;17.00;;
70733;SDS011;58320;48.804;9.252;2022-08-19T08:30:12;25.13;;;16.77;;
70733;SDS011;58320;48.804;9.252;2022-08-19T08:32:45;29.83;;;16.93;;
70733;SDS011;58320;48.804;9.252;2022-08-19T08:35:13;27.60;;;17.70;;
70733;SDS011;58320;48.804;9.252;2022-08-19T08:37:41;28.58;;;18.02;;
70733;SDS011;58320;48.804;9.252;2022-08-19T08:42:51;27.88;;;17.77;;
70733;SDS011;58320;48.804;9.252;2022-08-19T08:45:35;25.63;;;16.95;;
70733;SDS011;58320;48.804;9.252;2022-08-19T08:48:15;25.90;;;15.93;;
70733;SDS011;58320;48.804;9.252;2022-08-19T08:50:52;25.95;;;16.05;;
70733;SDS011;58320;48.804;9.252;2022-08-19T08:53:20;24.95;;;15.63;;
70733;SDS011;58320;48.804;9.252;2022-08-19T08:55:47;22.70;;;14.35;;
70733;SDS011;58320;48.804;9.252;2022-08-19T08:58:15;23.63;;;15.55;;
70733;SDS011;58320;48.804;9.252;2022-08-19T09:01:08;26.23;;;15.33;;
70733;SDS011;58320;48.804;9.252;2022-08-19T09:03:37;25.08;;;16.88;;
70733;SDS011;58320;48.804;9.252;2022-08-19T09:11:40;21.70;;;15.82;;
70733;SDS011;58320;48.804;9.252;2022-08-19T09:17:02;22.90;;;14.33;;
70733;SDS011;58320;48.804;9.252;2022-08-19T09:19:33;22.55;;;14.10;;
70733;SDS011;58320;48.804;9.252;2022-08-19T09:22:01;23.13;;;14.63;;
70733;SDS011;58320;48.804;9.252;2022-08-19T09:24:27;22.85;;;15.30;;
70733;SDS011;58320;48.804;9.252;2022-08-19T09:26:53;24.08;;;14.55;;
70733;SDS011;58320;48.804;9.252;2022-08-19T09:29:19;24.10;;;17.03;;
70733;SDS011;58320;48.804;9.252;2022-08-19T09:31:45;23.05;;;15.82;;
70733;SDS011;58320;48.804;9.252;2022-08-19T09:34:11;24.10;;;15.38;;
70733;SDS011;58320;48.804;9.252;2022-08-19T09:36:37;24.27;;;15.47;;
70733;SDS011;58320;48.804;9.252;2022-08-19T09:39:04;22.75;;;15.40;;
70733;SDS011;58320;48.804;9.252;2022-08-19T09:41:31;22.80;;;15.68;;
70733;SDS011;58320;48.804;9.252;2022-08-19T09:43:57;24.90;;;16.13;;
70733;SDS011;58320;48.804;9.252;2022-08-19T09:46:25;23.50;;;15.43;;
70733;SDS011;58320;48.804;9.252;2022-08-19T09:48:53;26.93;;;15.57;;
70733;SDS011;58320;48.804;9.252;2022-08-19T09:51:22;26.83;;;17.08;;
70733;SDS011;58320;48.804;9.252;2022-08-19T09:53:51;23.15;;;15.13;;
70733;SDS011;58320;48.804;9.252;2022-08-19T09:56:19;27.55;;;16.45;;
70733;SDS011;58320;48.804;9.252;2022-08-19T09:58:46;22.63;;;15.40;;
70733;SDS011;58320;48.804;9.252;2022-08-19T10:01:23;25.27;;;16.70;;
70733;SDS011;58320;48.804;9.252;2022-08-19T10:03:53;26.07;;;16.77;;
70733;SDS011;58320;48.804;9.252;2022-08-19T10:06:22;28.92;;;18.05;;
70733;SDS011;58320;48.804;9.252;2022-08-19T10:08:50;26.83;;;17.17;;
70733;SDS011;58320;48.804;9.252;2022-08-19T10:11:18;24.98;;;16.98;;
70733;SDS011;58320;48.804;9.252;2022-08-19T10:13:45;25.95;;;17.02;;
70733;SDS011;58320;48.804;9.252;2022-08-19T10:16:14;28.97;;;18.63;;
70733;SDS011;58320;48.804;9.252;2022-08-19T10:18:44;24.10;;;15.30;;
70733;SDS011;58320;48.804;9.252;2022-08-19T10:21:15;28.95;;;16.95;;
70733;SDS011;58320;48.804;9.252;2022-08-19T10:23:45;27.48;;;17.00;;
70733;SDS011;58320;48.804;9.252;2022-08-19T10:26:16;22.60;;;16.27;;
70733;SDS011;58320;48.804;9.252;2022-08-19T10:28:45;21.63;;;15.07;;
70733;SDS011;58320;48.804;9.252;2022-08-19T10:31:16;22.13;;;14.13;;
70733;SDS011;58320;48.804;9.252;2022-08-19T10:33:54;18.97;;;13.60;;
70733;SDS011;58320;48.804;9.252;2022-08-19T10:36:25;22.75;;;14.48;;
70733;SDS011;58320;48.804;9.252;2022-08-19T10:38:58;22.60;;;15.32;;
70733;SDS011;58320;48.804;9.252;2022-08-19T10:41:28;26.08;;;16.35;;
70733;SDS011;58320;48.804;9.252;2022-08-19T10:44:02;25.05;;;16.30;;
70733;SDS011;58320;48.804;9.252;2022-08-19T10:46:33;21.80;;;14.43;;
70733;SDS011;58320;48.804;9.252;2022-08-19T10:49:03;21.70;;;13.47;;
70733;SDS011;58320;48.804;9.252;2022-08-19T10:51:30;19.35;;;13.43;;
70733;SDS011;58320;48.804;9.252;2022-08-19T10:54:16;18.73;;;14.23;;
70733;SDS011;58320;48.804;9.252;2022-08-19T10:56:42;18.75;;;12.88;;
70733;SDS011;58320;48.804;9.252;2022-08-19T10:59:22;17.45;;;13.05;;
70733;SDS011;58320;48.804;9.252;2022-08-19T11:01:52;24.20;;;15.43;;
70733;SDS011;58320;48.804;9.252;2022-08-19T11:04:24;22.47;;;15.50;;
70733;SDS011;58320;48.804;9.252;2022-08-19T11:06:50;23.67;;;14.45;;
70733;SDS011;58320;48.804;9.252;2022-08-19T11:09:17;18.70;;;12.88;;
70733;SDS011;58320;48.804;9.252;2022-08-19T11:11:45;21.50;;;14.15;;
70733;SDS011;58320;48.804;9.252;2022-08-19T11:14:13;22.83;;;16.67;;
70733;SDS011;58320;48.804;9.252;2022-08-19T11:16:43;20.70;;;13.50;;
70733;SDS011;58320;48.804;9.252;2022-08-19T11:19:10;19.38;;;12.50;;
70733;SDS011;58320;48.804;9.252;2022-08-19T11:21:39;17.25;;;12.15;;
70733;SDS011;58320;48.804;9.252;2022-08-19T11:24:12;15.40;;;11.15;;
70733;SDS011;58320;48.804;9.252;2022-08-19T11:26:50;23.95;;;14.15;;
70733;SDS011;58320;48.804;9.252;2022-08-19T11:29:21;15.52;;;10.18;;
70733;SDS011;58320;48.804;9.252;2022-08-19T11:31:50;18.50;;;13.93;;
70733;SDS011;58320;48.804;9.252;2022-08-19T11:34:19;21.35;;;15.00;;
70733;SDS011;58320;48.804;9.252;2022-08-19T11:36:49;16.98;;;11.65;;
70733;SDS011;58320;48.804;9.252;2022-08-19T11:39:17;17.05;;;11.60;;
70733;SDS011;58320;48.804;9.252;2022-08-19T11:41:46;14.02;;;9.07;;
70733;SDS011;58320;48.804;9.252;2022-08-19T11:44:12;19.52;;;14.05;;
70733;SDS011;58320;48.804;9.252;2022-08-19T11:46:39;27.83;;;17.43;;
70733;SDS011;58320;48.804;9.252;2022-08-19T11:49:08;21.13;;;14.00;;
70733;SDS011;58320;48.804;9.252;2022-08-19T11:51:34;21.00;;;14.60;;
70733;SDS011;58320;48.804;9.252;2022-08-19T11:54:00;20.33;;;14.88;;
70733;SDS011;58320;48.804;9.252;2022-08-19T11:56:27;22.17;;;14.32;;
70733;SDS011;58320;48.804;9.252;2022-08-19T11:58:53;24.20;;;15.55;;
70733;SDS011;58320;48.804;9.252;2022-08-19T12:01:21;25.90;;;17.50;;
70733;SDS011;58320;48.804;9.252;2022-08-19T12:03:50;24.20;;;16.67;;
70733;SDS011;58320;48.804;9.252;2022-08-19T12:06:18;26.52;;;18.20;;
70733;SDS011;58320;48.804;9.252;2022-08-19T12:08:50;24.65;;;16.88;;
70733;SDS011;58320;48.804;9.252;2022-08-19T12:11:16;25.40;;;16.58;;
70733;SDS011;58320;48.804;9.252;2022-08-19T12:13:43;22.85;;;15.75;;
70733;SDS011;58320;48.804;9.252;2022-08-19T12:16:11;23.35;;;16.15;;
70733;SDS011;58320;48.804;9.252;2022-08-19T12:18:53;26.23;;;15.73;;
70733;SDS011;58320;48.804;9.252;2022-08-19T12:21:21;23.07;;;16.53;;
70733;SDS011;58320;48.804;9.252;2022-08-19T12:23:53;22.63;;;15.68;;
70733;SDS011;58320;48.804;9.252;2022-08-19T12:26:21;26.08;;;17.48;;
70733;SDS011;58320;48.804;9.252;2022-08-19T12:28:48;23.35;;;15.98;;
70733;SDS011;58320;48.804;9.252;2022-08-19T12:31:14;26.05;;;17.65;;
70733;SDS011;58320;48.804;9.252;2022-08-19T12:33:40;24.60;;;16.77;;
70733;SDS011;58320;48.804;9.252;2022-08-19T12:36:08;27.83;;;16.93;;
70733;SDS011;58320;48.804;9.252;2022-08-19T12:38:37;27.40;;;18.30;;
70733;SDS011;58320;48.804;9.252;2022-08-19T12:41:05;29.60;;;19.13;;
70733;SDS011;58320;48.804;9.252;2022-08-19T12:43:34;30.00;;;19.67;;
70733;SDS011;58320;48.804;9.252;2022-08-19T12:46:01;33.80;;;20.77;;
70733;SDS011;58320;48.804;9.252;2022-08-19T12:48:29;28.50;;;19.25;;
70733;SDS011;58320;48.804;9.252;2022-08-19T12:50:56;28.60;;;19.73;;
70733;SDS011;58320;48.804;9.252;2022-08-19T12:53:21;30.25;;;19.88;;
70733;SDS011;58320;48.804;9.252;2022-08-19T12:55:47;27.77;;;19.30;;
70733;SDS011;58320;48.804;9.252;2022-08-19T12:58:21;29.20;;;19.08;;
70733;SDS011;58320;48.804;9.252;2022-08-19T13:00:47;34.17;;;19.93;;
70733;SDS011;58320;48.804;9.252;2022-08-19T13:03:14;29.23;;;19.63;;
70733;SDS011;58320;48.804;9.252;2022-08-19T13:05:40;29.58;;;19.23;;
70733;SDS011;58320;48.804;9.252;2022-08-19T13:08:07;31.60;;;19.95;;
70733;SDS011;58320;48.804;9.252;2022-08-19T13:10:34;27.90;;;18.63;;
70733;SDS011;58320;48.804;9.252;2022-08-19T13:13:02;29.23;;;18.77;;
70733;SDS011;58320;48.804;9.252;2022-08-19T13:15:33;32.07;;;20.43;;
70733;SDS011;58320;48.804;9.252;2022-08-19T13:18:06;33.45;;;20.73;;
70733;SDS011;58320;48.804;9.252;2022-08-19T13:20:35;32.75;;;20.90;;
70733;SDS011;58320;48.804;9.252;2022-08-19T13:23:03;33.58;;;21.10;;
70733;SDS011;58320;48.804;9.252;2022-08-19T13:25:29;35.75;;;21.58;;
70733;SDS011;58320;48.804;9.252;2022-08-19T13:27:56;35.33;;;21.63;;
70733;SDS011;58320;48.804;9.252;2022-08-19T13:30:22;33.60;;;22.17;;
70733;SDS011;58320;48.804;9.252;2022-08-19T13:33:07;35.17;;;21.50;;
70733;SDS011;58320;48.804;9.252;2022-08-19T13:36:19;35.88;;;22.70;;
70733;SDS011;58320;48.804;9.252;2022-08-19T13:38:26;36.40;;;22.33;;
70733;SDS011;58320;48.804;9.252;2022-08-19T13:40:53;34.38;;;22.67;;
70733;SDS011;58320;48.804;9.252;2022-08-19T13:43:21;35.20;;;22.83;;
70733;SDS011;58320;48.804;9.252;2022-08-19T13:45:51;34.93;;;22.33;;
70733;SDS011;58320;48.804;9.252;2022-08-19T13:48:20;36.03;;;22.55;;
70733;SDS011;58320;48.804;9.252;2022-08-19T13:50:47;39.47;;;22.80;;
70733;SDS011;58320;48.804;9.252;2022-08-19T13:53:13;36.20;;;22.50;;
70733;SDS011;58320;48.804;9.252;2022-08-19T13:55:41;36.78;;;23.40;;
70733;SDS011;58320;48.804;9.252;2022-08-19T13:58:08;37.65;;;22.02;;
70733;SDS011;58320;48.804;9.252;2022-08-19T14:00:36;38.03;;;23.00;;
70733;SDS011;58320;48.804;9.252;2022-08-19T14:03:08;38.72;;;23.20;;
70733;SDS011;58320;48.804;9.252;2022-08-19T14:05:35;37.80;;;23.77;;
70733;SDS011;58320;48.804;9.252;2022-08-19T14:08:02;40.08;;;24.20;;
70733;SDS011;58320;48.804;9.252;2022-08-19T14:10:28;42.33;;;24.60;;
70733;SDS011;58320;48.804;9.252;2022-08-19T14:12:59;42.13;;;24.48;;
70733;SDS011;58320;48.804;9.252;2022-08-19T14:15:27;44.20;;;24.53;;
70733;SDS011;58320;48.804;9.252;2022-08-19T14:17:55;41.15;;;24.80;;
70733;SDS011;58320;48.804;9.252;2022-08-19T14:20:21;41.75;;;24.70;;
70733;SDS011;58320;48.804;9.252;2022-08-19T14:22:48;47.30;;;27.05;;
70733;SDS011;58320;48.804;9.252;2022-08-19T14:25:16;44.90;;;25.40;;
70733;SDS011;58320;48.804;9.252;2022-08-19T14:27:49;45.70;;;25.90;;
70733;SDS011;58320;48.804;9.252;2022-08-19T14:30:20;48.77;;;27.13;;
70733;SDS011;58320;48.804;9.252;2022-08-19T14:32:52;46.67;;;27.70;;
70733;SDS011;58320;48.804;9.252;2022-08-19T14:35:19;46.72;;;26.27;;
70733;SDS011;58320;48.804;9.252;2022-08-19T14:37:47;46.53;;;26.85;;
70733;SDS011;58320;48.804;9.252;2022-08-19T14:40:14;46.28;;;26.30;;
70733;SDS011;58320;48.804;9.252;2022-08-19T14:42:45;42.47;;;25.27;;
70733;SDS011;58320;48.804;9.252;2022-08-19T14:45:13;41.77;;;24.30;;
70733;SDS011;58320;48.804;9.252;2022-08-19T14:47:39;45.78;;;25.40;;
70733;SDS011;58320;48.804;9.252;2022-08-19T14:50:06;44.00;;;25.95;;